createdAt,value
2019-01-04T00:01:27.260Z,26.43
2019-01-04T00:04:05.420Z,25.53
2019-01-04T00:06:38.395Z,27.63
2019-01-04T00:09:12.006Z,27.97
2019-01-04T00:11:46.213Z,28.90
2019-01-04T00:14:19.197Z,28.40
2019-01-04T00:16:53.838Z,29.77
2019-01-04T00:19:27.836Z,31.23
2019-01-04T00:22:02.301Z,31.20
2019-01-04T00:24:36.061Z,34.07
2019-01-04T00:27:09.069Z,32.90
2019-01-04T00:29:42.101Z,36.37
2019-01-04T00:32:16.272Z,35.23
2019-01-04T00:34:49.431Z,36.10
2019-01-04T00:37:23.020Z,35.20
2019-01-04T00:39:58.328Z,33.73
2019-01-04T00:42:32.162Z,35.23
2019-01-04T00:45:07.589Z,34.90
2019-01-04T00:47:41.980Z,36.30
2019-01-04T00:50:15.876Z,35.60
2019-01-04T00:52:49.010Z,34.87
2019-01-04T00:56:17.431Z,36.63
2019-01-04T00:59:42.936Z,37.80
2019-01-04T01:03:16.372Z,36.30
2019-01-04T01:06:18.221Z,35.97
2019-01-04T01:09:46.192Z,37.77
2019-01-04T01:13:09.897Z,38.13
2019-01-04T01:16:08.443Z,37.17
2019-01-04T01:19:40.693Z,42.67
2019-01-04T01:23:07.129Z,39.57
2019-01-04T01:26:43.972Z,37.57
2019-01-04T01:29:40.784Z,34.57
2019-01-04T01:32:38.511Z,39.35
2019-01-04T01:35:54.136Z,37.23
2019-01-04T01:39:09.040Z,34.67
2019-01-04T01:42:49.044Z,33.90
2019-01-04T01:46:33.256Z,35.73
2019-01-04T01:50:05.016Z,40.28
2019-01-04T01:52:46.488Z,35.47
2019-01-04T01:55:20.866Z,34.77
2019-01-04T01:57:54.919Z,36.53
2019-01-04T02:00:28.299Z,34.97
2019-01-04T02:03:01.213Z,38.00
2019-01-04T02:05:34.392Z,35.73
2019-01-04T02:08:07.798Z,34.90
2019-01-04T02:10:40.941Z,36.80
2019-01-04T02:13:13.800Z,36.27
2019-01-04T02:15:47.266Z,34.93
2019-01-04T02:18:20.167Z,36.33
2019-01-04T02:20:53.009Z,35.80
2019-01-04T02:23:28.263Z,35.03
2019-01-04T02:26:01.650Z,33.67
2019-01-04T02:28:35.344Z,34.53
2019-01-04T02:31:09.117Z,36.20
2019-01-04T02:33:42.260Z,35.10
2019-01-04T02:36:16.077Z,34.27
2019-01-04T02:38:49.609Z,32.83
2019-01-04T02:41:22.550Z,32.20
2019-01-04T02:43:55.692Z,32.23
2019-01-04T02:46:29.183Z,25.80
2019-01-04T02:49:02.196Z,23.57
2019-01-04T02:51:35.804Z,23.20
2019-01-04T02:54:09.167Z,21.53
2019-01-04T02:56:42.177Z,22.23
2019-01-04T02:59:15.137Z,24.47
2019-01-04T03:01:48.533Z,21.53
2019-01-04T03:04:21.590Z,22.73
2019-01-04T03:06:54.529Z,24.30
2019-01-04T03:09:27.887Z,23.37
2019-01-04T03:12:00.815Z,24.10
2019-01-04T03:14:34.145Z,21.20
2019-01-04T03:17:07.513Z,31.80
2019-01-04T03:19:40.441Z,27.93
2019-01-04T03:22:13.297Z,27.37
2019-01-04T03:24:46.592Z,27.70
2019-01-04T03:27:19.435Z,24.77
2019-01-04T03:29:52.393Z,28.13
2019-01-04T03:32:26.386Z,29.50
2019-01-04T03:34:59.456Z,27.63
2019-01-04T03:37:32.405Z,33.55
2019-01-04T03:40:07.236Z,30.80
2019-01-04T03:42:40.212Z,30.70
2019-01-04T03:45:15.147Z,34.88
2019-01-04T03:47:49.468Z,28.63
2019-01-04T03:50:22.560Z,35.60
2019-01-04T03:52:55.477Z,35.27
2019-01-04T03:55:29.261Z,40.67
2019-01-04T03:58:02.264Z,46.78
2019-01-04T04:00:35.227Z,43.47
2019-01-04T04:03:09.505Z,46.03
2019-01-04T04:05:42.379Z,41.57
2019-01-04T04:08:15.193Z,46.03
2019-01-04T04:10:48.608Z,46.33
2019-01-04T04:13:21.644Z,42.60
2019-01-04T04:15:54.551Z,56.55
2019-01-04T04:18:29.352Z,68.75
2019-01-04T04:21:02.395Z,55.40
2019-01-04T04:23:35.467Z,46.77
2019-01-04T04:26:09.068Z,54.50
2019-01-04T04:28:42.039Z,53.07
2019-01-04T04:31:15.132Z,54.63
2019-01-04T04:33:49.609Z,57.57
2019-01-04T04:36:22.577Z,59.90
2019-01-04T04:38:56.764Z,52.27
2019-01-04T04:41:30.133Z,60.50
2019-01-04T04:44:02.935Z,55.53
2019-01-04T04:46:37.540Z,53.97
2019-01-04T04:49:13.928Z,58.67
2019-01-04T04:51:46.872Z,61.67
2019-01-04T04:54:20.263Z,60.20
2019-01-04T04:56:53.632Z,61.10
2019-01-04T04:59:26.668Z,57.53
2019-01-04T05:01:59.594Z,70.50
2019-01-04T05:04:34.067Z,68.82
2019-01-04T05:07:07.015Z,70.90
2019-01-04T05:09:40.014Z,56.47
2019-01-04T05:12:14.599Z,71.22
2019-01-04T05:14:48.015Z,61.90
2019-01-04T05:17:21.039Z,57.63
2019-01-04T05:19:54.847Z,59.43
2019-01-04T05:22:27.797Z,65.00
2019-01-04T05:25:00.661Z,64.33
2019-01-04T05:27:36.051Z,68.47
2019-01-04T05:30:08.279Z,63.67
2019-01-04T05:32:41.168Z,66.07
2019-01-04T05:35:15.636Z,62.17
2019-01-04T05:37:50.081Z,80.65
2019-01-04T05:40:22.989Z,68.83
2019-01-04T05:42:57.431Z,67.40
2019-01-04T05:45:30.247Z,70.47
2019-01-04T05:48:03.912Z,80.62
2019-01-04T05:50:37.257Z,68.37
2019-01-04T05:53:10.169Z,65.70
2019-01-04T05:55:44.493Z,64.97
2019-01-04T05:58:21.778Z,67.47
2019-01-04T06:00:54.725Z,70.87
2019-01-04T06:03:28.531Z,69.47
2019-01-04T06:06:01.901Z,70.00
2019-01-04T06:08:36.036Z,72.50
2019-01-04T06:11:08.893Z,64.30
2019-01-04T06:13:42.307Z,68.27
2019-01-04T06:16:15.100Z,68.17
2019-01-04T06:18:48.464Z,66.13
2019-01-04T06:21:22.142Z,65.60
2019-01-04T06:23:55.059Z,76.72
2019-01-04T06:26:28.353Z,62.50
2019-01-04T06:29:01.944Z,70.15
2019-01-04T06:31:34.934Z,57.97
2019-01-04T06:34:08.565Z,55.43
2019-01-04T06:36:41.955Z,54.37
2019-01-04T06:39:14.891Z,54.03
2019-01-04T06:41:47.752Z,54.83
2019-01-04T06:44:21.088Z,56.23
2019-01-04T06:47:16.990Z,54.80
2019-01-04T06:49:52.032Z,54.50
2019-01-04T06:52:26.572Z,55.83
2019-01-04T06:55:33.045Z,53.97
2019-01-04T06:58:07.797Z,55.67
2019-01-04T07:00:49.465Z,61.35
2019-01-04T07:03:25.087Z,52.70
2019-01-04T07:05:58.523Z,49.17
2019-01-04T07:08:31.499Z,51.53
2019-01-04T07:11:04.591Z,50.87
2019-01-04T07:13:41.157Z,53.67
2019-01-04T07:16:15.131Z,52.30
2019-01-04T07:18:48.156Z,52.03
2019-01-04T07:21:21.603Z,51.30
2019-01-04T07:23:54.488Z,52.23
2019-01-04T07:26:27.373Z,53.00
2019-01-04T07:29:04.854Z,49.50
2019-01-04T07:31:39.226Z,50.87
2019-01-04T07:34:12.266Z,51.33
2019-01-04T07:36:45.792Z,51.60
2019-01-04T07:39:18.627Z,48.27
2019-01-04T07:41:51.622Z,50.63
2019-01-04T07:44:27.011Z,50.90
2019-01-04T07:47:00.451Z,52.67
2019-01-04T07:49:38.821Z,51.70
2019-01-04T07:52:11.790Z,64.07
2019-01-04T07:54:44.802Z,56.63
2019-01-04T07:57:18.507Z,50.93
2019-01-04T07:59:51.409Z,51.67
2019-01-04T08:02:38.901Z,50.03
2019-01-04T08:05:19.159Z,47.40
2019-01-04T08:07:52.782Z,45.83
2019-01-04T08:10:25.916Z,41.47
2019-01-04T08:13:00.780Z,43.27
2019-01-04T08:15:36.110Z,42.90
2019-01-04T08:18:11.271Z,40.87
2019-01-04T08:20:44.702Z,40.63
2019-01-04T08:23:19.383Z,34.90
2019-01-04T08:25:52.331Z,33.70
2019-01-04T08:28:25.289Z,33.73
2019-01-04T08:30:58.272Z,33.67
2019-01-04T08:33:33.032Z,30.63
2019-01-04T08:36:06.607Z,30.73
2019-01-04T08:38:40.434Z,30.23
2019-01-04T08:41:14.715Z,31.43
2019-01-04T08:43:50.267Z,34.27
2019-01-04T08:46:25.494Z,34.30
2019-01-04T08:49:01.414Z,39.27
2019-01-04T08:51:34.563Z,40.37
2019-01-04T08:54:13.035Z,43.87
2019-01-04T08:56:45.996Z,47.00
2019-01-04T08:59:20.150Z,44.97
2019-01-04T09:01:53.532Z,47.73
2019-01-04T09:04:26.942Z,50.47
2019-01-04T09:06:59.875Z,50.07
2019-01-04T09:09:34.463Z,50.07
2019-01-04T09:12:07.496Z,54.70
2019-01-04T09:14:40.343Z,52.67
2019-01-04T09:17:13.840Z,55.20
2019-01-04T09:19:52.386Z,54.43
2019-01-04T09:22:26.084Z,53.97
2019-01-04T09:24:59.462Z,56.20
2019-01-04T09:27:34.011Z,55.13
2019-01-04T09:30:13.491Z,63.10
2019-01-04T09:32:47.340Z,52.77
2019-01-04T09:35:22.447Z,54.03
2019-01-04T09:37:57.024Z,52.87
2019-01-04T09:40:31.552Z,55.77
2019-01-04T09:43:04.700Z,56.00
2019-01-04T09:45:40.845Z,57.37
2019-01-04T09:48:16.376Z,55.27
2019-01-04T09:50:50.944Z,51.67
2019-01-04T09:53:25.696Z,59.40
2019-01-04T09:56:00.043Z,54.92
2019-01-04T09:58:34.271Z,47.07
2019-01-04T10:01:07.576Z,47.70
2019-01-04T10:03:41.715Z,46.83
2019-01-04T10:06:15.703Z,51.35
2019-01-04T10:08:49.959Z,43.40
2019-01-04T10:11:23.755Z,39.97
2019-01-04T10:14:01.155Z,39.60
2019-01-04T10:16:41.028Z,39.60
2019-01-04T10:19:30.204Z,34.33
2019-01-04T10:22:07.431Z,33.90
2019-01-04T10:24:41.304Z,36.80
2019-01-04T10:27:14.669Z,32.30
2019-01-04T10:29:48.425Z,30.23
2019-01-04T10:32:27.436Z,30.30
2019-01-04T10:35:03.109Z,30.00
2019-01-04T10:37:36.807Z,28.63
2019-01-04T10:40:11.230Z,26.63
2019-01-04T10:42:44.516Z,27.37
2019-01-04T10:45:17.673Z,26.83
2019-01-04T10:47:54.817Z,25.23
2019-01-04T10:50:27.852Z,26.20
2019-01-04T10:53:05.185Z,25.83
2019-01-04T10:55:41.072Z,23.50
2019-01-04T10:58:16.241Z,25.47
2019-01-04T11:00:51.682Z,25.13
2019-01-04T11:03:27.482Z,23.03
2019-01-04T11:06:02.929Z,23.50
2019-01-04T11:08:37.105Z,27.62
2019-01-04T11:11:10.240Z,26.20
2019-01-04T11:13:43.289Z,26.37
2019-01-04T11:16:16.224Z,30.00
2019-01-04T11:18:50.956Z,26.53
2019-01-04T11:21:24.525Z,27.60
2019-01-04T11:24:42.477Z,28.40
2019-01-04T11:27:49.339Z,27.90
2019-01-04T11:30:58.384Z,26.87
2019-01-04T11:33:49.499Z,27.30
2019-01-04T11:36:55.423Z,24.30
2019-01-04T11:39:51.390Z,26.37
2019-01-04T11:42:46.108Z,25.63
2019-01-04T11:45:39.015Z,21.57
2019-01-04T11:48:53.560Z,19.90
2019-01-04T11:52:06.828Z,18.90
2019-01-04T11:54:41.457Z,19.17
2019-01-04T11:57:15.671Z,19.93
2019-01-04T11:59:57.264Z,20.40
2019-01-04T12:02:30.298Z,20.80
2019-01-04T12:05:07.097Z,20.70
2019-01-04T12:07:40.462Z,22.30
2019-01-04T12:10:15.228Z,23.17
2019-01-04T12:12:52.186Z,24.37
2019-01-04T12:15:25.253Z,25.33
2019-01-04T12:17:59.126Z,27.13
2019-01-04T12:20:34.059Z,24.87
2019-01-04T12:23:11.133Z,22.23
2019-01-04T12:25:45.344Z,22.87
2019-01-04T12:28:20.820Z,21.90
2019-01-04T12:30:55.408Z,24.73
2019-01-04T12:33:30.000Z,23.03
2019-01-04T12:36:05.165Z,23.37
2019-01-04T12:38:38.258Z,23.67
2019-01-04T12:41:11.266Z,28.73
2019-01-04T12:43:48.030Z,24.20
2019-01-04T12:46:22.406Z,24.80
2019-01-04T12:48:58.000Z,24.90
2019-01-04T12:51:32.303Z,25.60
2019-01-04T12:54:07.039Z,25.63
2019-01-04T12:56:43.310Z,26.13
2019-01-04T12:59:16.801Z,26.57
2019-01-04T13:01:49.816Z,29.60
2019-01-04T13:04:25.036Z,29.03
2019-01-04T13:06:58.624Z,28.43
2019-01-04T13:09:32.670Z,32.03
2019-01-04T13:12:06.568Z,31.30
2019-01-04T13:14:41.582Z,33.13
2019-01-04T13:17:17.094Z,32.40
2019-01-04T13:19:52.062Z,34.07
2019-01-04T13:22:26.172Z,33.70
2019-01-04T13:24:59.169Z,34.53
2019-01-04T13:27:43.678Z,31.37
2019-01-04T13:30:19.247Z,31.17
2019-01-04T13:32:53.662Z,29.40
2019-01-04T13:35:26.692Z,31.42
2019-01-04T13:38:01.326Z,28.73
2019-01-04T13:40:34.293Z,28.30
2019-01-04T13:43:09.554Z,31.90
2019-01-04T13:45:43.668Z,29.23
2019-01-04T13:48:19.504Z,31.77
2019-01-04T13:50:52.572Z,32.03
2019-01-04T13:53:26.098Z,34.30
2019-01-04T13:56:00.941Z,32.60
2019-01-04T13:58:35.164Z,34.50
2019-01-04T14:01:10.393Z,33.20
2019-01-04T14:03:46.410Z,34.00
2019-01-04T14:06:19.738Z,32.43
2019-01-04T14:08:53.825Z,33.67
2019-01-04T14:11:27.684Z,38.88
2019-01-04T14:14:02.569Z,35.27
2019-01-04T14:16:37.175Z,32.73
2019-01-04T14:19:12.495Z,34.70
2019-01-04T14:21:46.088Z,34.67
2019-01-04T14:24:20.376Z,34.27
2019-01-04T14:26:53.398Z,33.33
2019-01-04T14:29:26.703Z,32.90
2019-01-04T14:32:01.575Z,34.50
2019-01-04T14:34:35.331Z,33.67
2019-01-04T14:37:09.072Z,32.47
2019-01-04T14:39:43.048Z,33.37
2019-01-04T14:42:16.013Z,37.88
2019-01-04T14:44:50.016Z,34.77
2019-01-04T14:47:29.126Z,33.23
2019-01-04T14:50:04.706Z,33.53
2019-01-04T14:52:42.743Z,36.92
2019-01-04T14:55:17.310Z,33.80
2019-01-04T14:57:51.938Z,31.80
2019-01-04T15:00:25.478Z,32.07
2019-01-04T15:03:01.045Z,31.37
2019-01-04T15:05:35.011Z,31.93
2019-01-04T15:08:08.004Z,32.07
2019-01-04T15:10:42.054Z,33.77
2019-01-04T15:13:15.021Z,36.80
2019-01-04T15:15:51.879Z,37.07
2019-01-04T15:18:27.266Z,35.83
2019-01-04T15:21:01.106Z,36.63
2019-01-04T15:23:35.557Z,35.97
2019-01-04T15:26:08.903Z,40.08
2019-01-04T15:28:42.760Z,36.40
2019-01-04T15:31:15.706Z,34.83
2019-01-04T15:33:48.729Z,36.13
2019-01-04T15:36:23.020Z,34.43
2019-01-04T15:38:57.688Z,36.57
2019-01-04T15:41:31.372Z,35.87
2019-01-04T15:44:05.050Z,37.70
2019-01-04T15:46:40.044Z,42.03
2019-01-04T15:49:13.658Z,40.45
2019-01-04T15:51:49.636Z,41.17
2019-01-04T15:54:25.012Z,34.17
2019-01-04T15:56:58.040Z,35.57
2019-01-04T15:59:31.382Z,35.47
2019-01-04T16:02:05.218Z,34.43
2019-01-04T16:04:39.143Z,36.03
2019-01-04T16:07:15.177Z,36.63
2019-01-04T16:09:49.119Z,35.63
2019-01-04T16:12:22.790Z,37.93
2019-01-04T16:14:57.524Z,40.10
2019-01-04T16:17:33.324Z,39.80
2019-01-04T16:20:09.067Z,42.30
2019-01-04T16:22:42.412Z,43.10
2019-01-04T16:25:19.968Z,43.03
2019-01-04T16:27:53.570Z,47.47
2019-01-04T16:30:26.614Z,47.17
2019-01-04T16:33:00.063Z,47.10
2019-01-04T16:35:33.871Z,49.43
2019-01-04T16:38:09.855Z,53.42
2019-01-04T16:40:46.382Z,50.87
2019-01-04T16:43:19.463Z,55.92
2019-01-04T16:45:53.445Z,55.33
2019-01-04T16:48:27.181Z,50.47
2019-01-04T16:51:00.197Z,51.97
2019-01-04T16:53:35.840Z,53.67
2019-01-04T16:56:10.032Z,55.70
2019-01-04T16:58:44.856Z,55.10
2019-01-04T17:01:20.359Z,56.63
2019-01-04T17:03:53.404Z,55.20
2019-01-04T17:06:27.437Z,57.23
2019-01-04T17:09:01.824Z,59.17
2019-01-04T17:11:35.949Z,58.87
2019-01-04T17:14:09.780Z,60.07
2019-01-04T17:16:43.302Z,63.67
2019-01-04T17:19:16.401Z,61.93
2019-01-04T17:21:51.135Z,72.68
2019-01-04T17:24:24.525Z,66.70
2019-01-04T17:26:57.492Z,65.40
2019-01-04T17:29:31.588Z,66.90
2019-01-04T17:32:06.164Z,69.00
2019-01-04T17:34:39.052Z,73.37
2019-01-04T17:37:13.698Z,71.73
2019-01-04T17:39:48.232Z,71.47
2019-01-04T17:42:22.385Z,79.97
2019-01-04T17:44:55.844Z,75.17
2019-01-04T17:47:28.781Z,72.47
2019-01-04T17:50:03.394Z,75.17
2019-01-04T17:52:39.423Z,87.12
2019-01-04T17:55:14.199Z,76.87
2019-01-04T17:57:47.925Z,73.87
2019-01-04T18:00:22.824Z,80.13
2019-01-04T18:03:00.802Z,80.37
2019-01-04T18:05:34.470Z,78.27
2019-01-04T18:08:07.596Z,78.33
2019-01-04T18:10:40.642Z,77.53
2019-01-04T18:13:14.530Z,74.70
2019-01-04T18:15:48.852Z,80.33
2019-01-04T18:18:22.845Z,80.10
2019-01-04T18:20:55.922Z,79.57
2019-01-04T18:23:30.544Z,83.63
2019-01-04T18:26:03.499Z,80.00
2019-01-04T18:28:36.661Z,86.20
2019-01-04T18:31:10.267Z,85.03
2019-01-04T18:33:45.381Z,91.13
2019-01-04T18:36:18.638Z,89.70
2019-01-04T18:38:52.522Z,102.95
2019-01-04T18:41:32.634Z,91.80
2019-01-04T18:44:12.763Z,89.53
2019-01-04T18:46:47.363Z,89.80
2019-01-04T18:49:22.427Z,87.07
2019-01-04T18:51:56.920Z,91.40
2019-01-04T18:54:30.307Z,90.00
2019-01-04T18:57:03.312Z,94.03
2019-01-04T18:59:39.806Z,91.63
2019-01-04T19:02:13.796Z,89.63
2019-01-04T19:04:46.971Z,91.80
2019-01-04T19:07:21.201Z,90.50
2019-01-04T19:09:56.639Z,92.03
2019-01-04T19:12:30.993Z,132.00
2019-01-04T19:15:09.657Z,100.87
2019-01-04T19:17:45.525Z,90.95
2019-01-04T19:20:20.243Z,80.63
2019-01-04T19:22:56.780Z,81.13
2019-01-04T19:25:33.154Z,80.60
2019-01-04T19:28:15.646Z,76.30
2019-01-04T19:30:48.837Z,79.67
2019-01-04T19:33:25.457Z,77.83
2019-01-04T19:35:58.920Z,90.32
2019-01-04T19:38:32.322Z,97.90
2019-01-04T19:41:06.322Z,102.05
2019-01-04T19:43:40.872Z,86.13
2019-01-04T19:46:14.948Z,86.87
2019-01-04T19:48:49.427Z,88.33
2019-01-04T19:51:26.441Z,90.40
2019-01-04T19:54:00.632Z,102.28
2019-01-04T19:56:35.206Z,93.90
2019-01-04T19:59:20.549Z,87.00
2019-01-04T20:01:55.810Z,105.60
2019-01-04T20:04:30.052Z,91.53
2019-01-04T20:08:04.916Z,90.97
2019-01-04T20:12:06.382Z,108.72
2019-01-04T20:15:36.101Z,100.03
2019-01-04T20:18:33.812Z,92.30
2019-01-04T20:21:28.029Z,95.97
2019-01-04T20:24:37.589Z,90.43
2019-01-04T20:27:34.627Z,79.30
2019-01-04T20:30:40.300Z,75.17
2019-01-04T20:33:38.939Z,77.30
2019-01-04T20:36:17.626Z,73.90
2019-01-04T20:39:12.405Z,67.93
2019-01-04T20:41:52.328Z,70.03
2019-01-04T20:44:46.026Z,73.17
2019-01-04T20:47:39.496Z,71.30
2019-01-04T20:50:23.339Z,64.27
2019-01-04T20:53:16.523Z,69.40
2019-01-04T20:55:56.267Z,64.63
2019-01-04T20:58:41.339Z,69.27
2019-01-04T21:01:38.364Z,67.13
2019-01-04T21:04:17.008Z,67.77
2019-01-04T21:07:07.681Z,66.13
2019-01-04T21:09:51.851Z,72.03
2019-01-04T21:12:32.113Z,67.63
2019-01-04T21:15:12.621Z,65.97
2019-01-04T21:17:59.977Z,66.50
2019-01-04T21:20:38.511Z,64.87
2019-01-04T21:23:18.727Z,70.20
2019-01-04T21:26:17.027Z,74.10
2019-01-04T21:28:55.957Z,71.27
2019-01-04T21:31:53.110Z,67.67
2019-01-04T21:34:32.763Z,65.77
2019-01-04T21:37:25.753Z,80.25
2019-01-04T21:40:33.782Z,66.87
2019-01-04T21:43:29.428Z,61.77
2019-01-04T21:46:19.831Z,73.05
2019-01-04T21:49:14.117Z,58.47
2019-01-04T21:52:07.993Z,72.93
2019-01-04T21:54:58.911Z,67.68
2019-01-04T21:57:39.648Z,56.63
2019-01-04T22:00:28.095Z,58.03
2019-01-04T22:03:26.706Z,55.83
2019-01-04T22:06:34.430Z,63.60
2019-01-04T22:09:42.925Z,69.30
2019-01-04T22:12:41.104Z,57.43
2019-01-04T22:15:39.494Z,56.97
2019-01-04T22:18:19.466Z,61.57
2019-01-04T22:21:14.132Z,65.70
2019-01-04T22:23:54.754Z,64.50
2019-01-04T22:26:48.960Z,72.20
2019-01-04T22:29:39.555Z,69.43
2019-01-04T22:32:31.919Z,60.17
2019-01-04T22:35:25.903Z,66.70
2019-01-04T22:38:06.243Z,68.00
2019-01-04T22:40:45.385Z,67.83
2019-01-04T22:43:27.732Z,78.37
2019-01-04T22:46:35.499Z,79.00
2019-01-04T22:49:23.133Z,85.23
2019-01-04T22:52:18.643Z,86.83
2019-01-04T22:54:58.268Z,79.93
2019-01-04T22:57:56.155Z,77.27
2019-01-04T23:00:51.141Z,93.05
2019-01-04T23:03:30.742Z,89.03
2019-01-04T23:06:12.839Z,83.30
2019-01-04T23:09:01.345Z,78.27
2019-01-04T23:11:40.782Z,66.37
2019-01-04T23:14:38.460Z,74.73
2019-01-04T23:17:39.566Z,84.18
2019-01-04T23:20:33.998Z,69.80
2019-01-04T23:23:30.631Z,65.53
2019-01-04T23:26:35.975Z,84.18
2019-01-04T23:29:30.678Z,71.50
2019-01-04T23:32:21.135Z,70.45
2019-01-04T23:35:20.059Z,61.40
2019-01-04T23:38:23.417Z,76.45
2019-01-04T23:41:17.237Z,69.77
2019-01-04T23:44:15.206Z,85.45
2019-01-04T23:47:12.773Z,73.23
2019-01-04T23:50:08.561Z,79.70
2019-01-04T23:53:01.336Z,77.43
2019-01-04T23:55:55.631Z,78.33
2019-01-04T23:58:41.119Z,81.13
